No Warnings, Watches, or Advisories

Active alerts


No alerts

Hours of Daylight

9 hrs 19 min 43 sec
of Daylight Today
38.8% Day 61.2% Night Which is 54 sec Shorter
Than Yesterday

South Webcam more information South Webcam


NorthWest Webcam more information NorthWest Webcam


You find our weather info also at:

UK Metoffice

Weather Underground

Mid-Atlantic Weather Network

WeatherlinkIP

Citizen Weather Observer Program (CWOP)

HAMweather, WeatherForYou, PWS Weather



Nearby METAR Reports

   
KDUJ - Du Bois, Pennsylvania, USA
Distance from station: NNE 16 mi
Updated: Dec 8 2022 4:53 pm
Overcast  
Overcast  
   Wind: Calm
Wind: Calm
Temperature: 41°F
Dew Point: 30.2°F
Humidity: 66%
Barometer: 30.26 inHg
Clouds: Overcast
Visibility: 10 mi
Cloud details: Overcast 3500 ft
KDUJ 082153Z AUTO 00000KT 10SM OVC035 05/M01 A3026 RMK AO2 SLP258 T00501006
KIDI - Indiana/Stewart, Pennsylvania, USA
Distance from station: SSW 23 mi
Updated: Dec 8 2022 5:55 pm
Overcast  
Overcast  
   Wind: Calm
Wind: Calm
Temperature: 42.8°F
Dew Point: 35.6°F
Humidity: 76%
Barometer: 30.31 inHg
Clouds: Overcast
Visibility: 10 mi
Cloud details: Overcast 3700 ft
KIDI 082255Z AUTO 00000KT 10SM OVC037 06/02 A3031 RMK A01
KFIG - Clearfield, Pennsylvania, USA
Distance from station: ENE 31 mi
Updated: Dec 8 2022 5:54 pm
Overcast  
Overcast  
   Wind: NNW 3.5 mph
Wind: NNW 3.5 mph
Temperature: 41°F
Wind Chill: 39.2°F
Dew Point: 32°F
Humidity: 70%
Barometer: 30.28 inHg
Clouds: Overcast
Visibility: 10 mi
Cloud details: Overcast 3900 ft
KFIG 082254Z AUTO 33003KT 10SM OVC039 05/00 A3028 RMK AO2 SLP262 T00500000
KJST - Johnstown, Pennsylvania, USA
Distance from station: S 44 mi
Updated: Dec 8 2022 5:54 pm
Overcast  
Overcast  
   Wind: North 4.6 mph
Wind: North 4.6 mph
Temperature: 39.2°F
Wind Chill: 35.6°F
Dew Point: 33.8°F
Humidity: 81%
Barometer: 30.24 inHg
Clouds: Overcast
Visibility: 10 mi
Cloud details: Overcast 10000 ft
KJST 082254Z AUTO 36004KT 10SM OVC100 04/01 A3024 RMK AO2 SLP257 T00440006
KPIT - Pittsburgh, Pennsylvania, USA
Distance from station: WSW 74 mi
Updated: Dec 8 2022 5:51 pm
Overcast  
Overcast  
   Wind: NE 5.8 mph
Wind: NE 5.8 mph
Temperature: 42.8°F
Wind Chill: 39.2°F
Dew Point: 37.4°F
Humidity: 81%
Barometer: 30.27 inHg
Clouds: Overcast
Visibility: 10 mi
Cloud details: Few Clouds 3600 ft,
Overcast 12000 ft
KPIT 082251Z 04005KT 10SM FEW036 OVC120 06/03 A3027 RMK AO2 SLP265 T00610033
KLBE - Latrobe/Westmorl, Pennsylvania, USA
Distance from station: SSW 52 mi
Updated: Dec 8 2022 4:47 pm
Mostly Cloudy  
Mostly Cloudy  
   Wind: Calm
Wind: Calm
Temperature: 44.6°F
Dew Point: 37.4°F
Humidity: 76%
Barometer: 30.28 inHg
Clouds: Mostly Cloudy
Visibility: 10 mi
Cloud details: Partly Cloudy 3400 ft,
Mostly Cloudy 9000 ft
KLBE 082147Z 00000KT 10SM SCT034 BKN090 07/03 A3028
KBTP - Butler Co., Pennsylvania, USA
Distance from station: WSW 52 mi
Updated: Dec 8 2022 5:56 pm
Partly Cloudy  
Partly Cloudy  
   Wind: NE 3.5 mph
Wind: NE 3.5 mph
Temperature: 42.8°F
Wind Chill: 41°F
Dew Point: 37.4°F
Humidity: 81%
Barometer: 30.29 inHg
Clouds: Partly Cloudy
Visibility: 10 mi
Cloud details: Partly Cloudy 3800 ft
KBTP 082256Z AUTO 04003KT 10SM SCT038 06/03 A3029 RMK AO2 SLP272 T00560033 TSNO
KUCP - New Castle Muni, Pennsylvania, USA
Distance from station: W 75 mi
Updated: Dec 8 2022 5:56 pm
Overcast  
Overcast  
   Wind: North 4.6 mph
Wind: North 4.6 mph
Temperature: 42.8°F
Wind Chill: 39.2°F
Dew Point: 37.4°F
Humidity: 81%
Barometer: 30.31 inHg
Clouds: Overcast
Visibility: 10 mi
Cloud details: Overcast 3800 ft
KUCP 082256Z AUTO 01004KT 10SM OVC038 06/03 A3031 RMK AO2 SLP285 T00610033
KFKL - Franklin, Pennsylvania, USA
Distance from station: WNW 54 mi
Updated: Dec 8 2022 5:56 pm
Overcast  
Overcast  
   Wind: Calm
Wind: Calm
Temperature: 39.2°F
Dew Point: 37.4°F
Humidity: 93%
Barometer: 30.3 inHg
Clouds: Overcast
Visibility: 10 mi
Cloud details: Overcast 3800 ft
KFKL 082256Z AUTO 00000KT 10SM OVC038 04/03 A3030 RMK AO2 SLP273 T00390033
KAOO - Altoona, Pennsylvania, USA
Distance from station: SE 57 mi
Updated: Dec 8 2022 5:53 pm
Overcast  
Overcast  
   Wind: North 5.8 mph
Wind: North 5.8 mph
Temperature: 42.8°F
Wind Chill: 39.2°F
Dew Point: 32°F
Humidity: 66%
Barometer: 30.26 inHg
Clouds: Overcast
Visibility: 10 mi
Cloud details: Overcast 11000 ft
KAOO 082253Z AUTO 36005KT 10SM OVC110 06/00 A3026 RMK AO2 SLP256 T00610000
KUNV - State College, Pennsylvania, USA
Distance from station: E 61 mi
Updated: Dec 8 2022 5:53 pm
Mostly Cloudy  
Mostly Cloudy  
   Wind: North 3.5 mph
Wind: North 3.5 mph
Temperature: 42.8°F
Wind Chill: 41°F
Dew Point: 32°F
Humidity: 66%
Barometer: 30.28 inHg
Clouds: Mostly Cloudy
Visibility: 10 mi
Cloud details: Mostly Cloudy 4300 ft
KUNV 082253Z 36003KT 10SM BKN043 06/00 A3028
KBFD - Bradford, Pennsylvania, USA
Distance from station: NNE 62 mi
Updated: Dec 8 2022 5:53 pm
Overcast  
Overcast  
   Wind: Calm
Wind: Calm
Temperature: 37.4°F
Dew Point: 28.4°F
Humidity: 70%
Barometer: 30.27 inHg
Clouds: Overcast
Visibility: 10 mi
Cloud details: Overcast 3200 ft
KBFD 082253Z AUTO 00000KT 10SM OVC032 03/M02 A3027 RMK AO2 SLP263 T00331022

Script developed by  Saratoga-weather.org Adapted for the template by  Weerstation Leuven

Equipment we use:

Weather-station
Davis VP2

Weather-program
Cumulus

Weather-server
Dell Latitude e5450

Provider
Host On A Rope

Davis VP2

Cumulus

Dell Latitude e5450

Host On A Rope